AirNav   Everest Fuels
 
 1009 users online  

NC08 Tusquittee Landing Airport
Hayesville, North Carolina, USA

GOING TO HAYESVILLE?


FAA INFORMATION EFFECTIVE 01 DECEMBER 2022

Location

FAA Identifier: NC08
Lat/Long: 35-05-07.3270N 083-44-10.6150W
35-05.122117N 083-44.176917W
35.0853686,-83.7362819
(estimated)
Elevation: 2000 ft. / 610 m (estimated)
Variation: 03W (1980)
From city: 5 miles NE of HAYESVILLE, NC
Time zone: UTC -5 (UTC -4 during Daylight Saving Time)
Zip code: 28904

Airport Operations

Airport use: Private use. Permission required prior to landing
Activation date: 11/1986
Control tower: no
ARTCC: ATLANTA CENTER
FSS: RALEIGH FLIGHT SERVICE STATION
Attendance: UNATNDD
Wind indicator: yes
Segmented circle: no

Airport Communications

CTAF: 122.75
WX AWOS-3 at RHP (9 nm NW): 119.675 (828-321-1049)
WX AWOS-3 at 1A5 (18 nm NE): 118.225 (828-349-3156)
WX AWOS-3PT at DZJ (19 nm SW): 119.325 (706-745-9271)

Nearby radio navigation aids

VOR radial/distance  VOR name  Freq  Var
HRSr046/12.3HARRIS VORTAC109.8000E
ODFr317/31.8FOOTHILLS VOR/DME113.4000E

Airport Services

Runway Information

Runway 10/28

Dimensions: 2700 x 50 ft. / 823 x 15 m
Surface: turf
RUNWAY 10  RUNWAY 28
Traffic pattern: leftright
Obstructions: none60 ft. trees, 600 ft. from runway

Airport Ownership and Management from official FAA records

Ownership: Privately-owned
Owner: TUSQITTEE LANDING FLYERS ASSOC INC
P.O. BOX 293
HAYESVILLE, NC 28904
Phone 678-787-8993
Manager: TOMMY SHOAF
P.O. BOX 293
HAYESVILLE, NC 28904
Phone 678-787-8993

Airport Operational Statistics

Aircraft based on the field: 6
Single engine airplanes: 6
    

Additional Remarks

FOR CD CTC ATLANTA ARTCC AT 770-210-7692.

Instrument Procedures

There are no published instrument procedures at NC08.

Some nearby airports with instrument procedures:

KRHP - Western Carolina Regional Airport (9 nm NW)
1A5 - Macon County Airport (18 nm NE)
KDZJ - Blairsville Airport (19 nm SW)
24A - Jackson County Airport (29 nm NE)
1A3 - Martin Campbell Field Airport (30 nm W)
 
Loc | Ops | Rwys | IFR | FBO | Links
Com | Nav | Svcs | Stats | Notes
Area around NC08 (Tusquittee Landing Airport)
 
Road maps at: MapQuest Bing Google
 
Aerial photo
WARNING: Photo may not be current or correct
Aerial photo of NC08 (Tusquittee Landing Airport)
Do you have a better or more recent aerial photo of Tusquittee Landing Airport that you would like to share? If so, please send us your photo.

 
Sectional chart

 
Airport distance calculator
Flying to Tusquittee Landing Airport? Find the distance to fly.

From to NC08

Sunrise and sunset
Times for 06-Dec-2022
 Local
(UTC-5)
 Zulu
(UTC)
Morning civil twilight07:0212:02
Sunrise07:3012:30
Sunset17:2222:22
Evening civil twilight17:5022:50

Current date and time
Zulu (UTC)  07-Dec-2022 04:30:52
Local (UTC-5)  06-Dec-2022 23:30:52
 
METAR
KRHP 
8nm NW 
070415Z AUTO 00000KT 2 1/2SM BR SCT004 BKN029 OVC037 12/11 A3023 RMK AO2 T01200113
K1A5 
18nm NE 
070415Z AUTO 00000KT 5SM BR BKN008 BKN011 OVC045 12/12 A3027 RMK AO2 T01200117
KDZJ 
19nm SW 
070415Z AUTO 00000KT 10SM SCT014 OVC031 16/15 A3025 RMK AO2 T01570148
TAF
KTYS 
46nm N 
062109Z 0621/0718 00000KT 5SM BR VCSH OVC002 FM062300 VRB03KT 6SM BR VCSH OVC015 FM071200 22006KT 2SM -RA OVC008
NOTAMs
Click for the latest NOTAMs
NOTAMs are issued by the DoD/FAA and will open in a separate window not controlled by AirNav.

 

 
 

Would you like to see your business listed on this page?

 If your business provides an interesting product or service to pilots, flight crews, aircraft, or users of the Tusquittee Landing Airport, you should consider listing it here.  To start the listing process, click on the button below
 
Add a business
 

Other Pages about Tusquittee Landing Airport

Update a link
 
Copyright © AirNav, LLC. All rights reserved. Privacy Policy  Contact